Time;durP1;ratioP1;P1;durP2;ratioP2;P2;SDS_P1;SDS_P2;PMS_P1;PMS_P2;Temp;Humidity;BMP_temperature;BMP_pressure;BME280_temperature;BME280_humidity;BME280_pressure;Samples;Min_cycle;Max_cycle;Signal;HPM_P1;HPM_P2
2023/11/19 00:02:08;;;;;;;7.63;4.03;;;10.60;99.90;;;;;;5031553;28;20025;-55
2023/11/19 00:04:37;;;;;;;10.17;3.80;;;10.70;99.90;;;;;;5031543;28;20186;-55
2023/11/19 00:07:03;;;;;;;7.38;3.35;;;10.70;99.90;;;;;;5032055;28;20026;-54
2023/11/19 00:09:29;;;;;;;5.90;2.83;;;10.70;99.90;;;;;;5031824;28;20104;-54
2023/11/19 00:11:55;;;;;;;7.10;3.13;;;10.70;99.90;;;;;;5032035;28;20045;-56
2023/11/19 00:14:21;;;;;;;6.43;3.00;;;10.80;99.90;;;;;;5031345;28;20034;-55
2023/11/19 00:16:46;;;;;;;6.07;2.87;;;10.80;99.90;;;;;;5031480;28;20040;-53
2023/11/19 00:19:12;;;;;;;5.60;3.27;;;10.80;99.90;;;;;;5029762;28;20033;-57
2023/11/19 00:21:38;;;;;;;5.77;3.13;;;10.90;99.90;;;;;;5031506;28;20497;-53
2023/11/19 00:24:04;;;;;;;7.30;3.23;;;10.80;99.90;;;;;;5031383;28;20033;-56
2023/11/19 00:26:29;;;;;;;6.60;3.20;;;10.90;99.90;;;;;;5031568;28;20040;-56
2023/11/19 00:28:57;;;;;;;4.93;2.83;;;10.80;99.90;;;;;;5031025;28;20401;-55
2023/11/19 00:31:23;;;;;;;8.77;3.27;;;10.90;99.90;;;;;;5030233;28;20029;-55
2023/11/19 00:33:48;;;;;;;6.87;3.23;;;10.90;99.90;;;;;;5030899;28;20041;-52
2023/11/19 00:36:14;;;;;;;6.53;2.70;;;10.90;99.90;;;;;;5031228;28;20026;-55
2023/11/19 00:38:39;;;;;;;7.23;3.40;;;11.00;99.90;;;;;;5030580;28;20509;-53
2023/11/19 00:41:05;;;;;;;8.13;3.83;;;11.20;99.90;;;;;;5029922;28;20680;-56
2023/11/19 00:43:31;;;;;;;7.97;3.73;;;11.20;99.90;;;;;;5029677;28;20068;-54
2023/11/19 00:45:56;;;;;;;7.67;4.20;;;11.30;99.90;;;;;;5030902;28;20432;-54
2023/11/19 00:48:22;;;;;;;7.40;4.10;;;11.50;99.90;;;;;;5030372;28;20251;-56
2023/11/19 00:50:48;;;;;;;7.37;4.33;;;11.70;99.90;;;;;;5030830;28;20037;-54
2023/11/19 00:53:13;;;;;;;8.65;5.13;;;11.90;99.90;;;;;;5031742;28;20057;-56
2023/11/19 00:55:39;;;;;;;8.87;4.50;;;12.00;99.90;;;;;;5030909;28;20022;-55
2023/11/19 00:58:04;;;;;;;9.38;5.00;;;12.00;99.90;;;;;;5029253;28;20045;-56
2023/11/19 01:00:32;;;;;;;9.77;5.28;;;12.10;99.90;;;;;;5030702;28;20029;-52
2023/11/19 01:03:00;;;;;;;11.10;5.88;;;12.20;99.90;;;;;;5030565;28;20033;-52
2023/11/19 01:05:25;;;;;;;12.40;6.45;;;12.20;99.90;;;;;;5032184;28;20041;-55
2023/11/19 01:07:53;;;;;;;10.88;5.68;;;12.20;99.90;;;;;;5033468;28;20554;-56
2023/11/19 01:10:19;;;;;;;10.77;5.45;;;12.20;99.90;;;;;;5033082;28;20129;-51
2023/11/19 01:12:44;;;;;;;7.97;4.60;;;12.20;99.90;;;;;;5035050;28;20116;-51
2023/11/19 01:15:10;;;;;;;10.48;5.18;;;12.20;99.90;;;;;;5033441;28;20033;-52
2023/11/19 01:17:39;;;;;;;9.52;5.00;;;12.30;99.90;;;;;;5033198;28;20033;-51
2023/11/19 01:20:06;;;;;;;11.85;5.43;;;12.30;99.90;;;;;;5034304;28;20034;-54
2023/11/19 01:22:33;;;;;;;9.85;5.07;;;12.30;99.90;;;;;;5033712;28;20026;-56
2023/11/19 01:24:58;;;;;;;10.32;5.40;;;12.30;99.90;;;;;;5033216;28;20034;-54
2023/11/19 01:27:24;;;;;;;16.98;7.78;;;12.30;99.90;;;;;;5033311;28;20096;-56
2023/11/19 01:29:50;;;;;;;12.35;6.05;;;12.40;99.90;;;;;;5032693;28;20036;-55
2023/11/19 01:32:16;;;;;;;8.40;4.75;;;12.40;99.90;;;;;;5032876;28;20041;-53
2023/11/19 01:34:41;;;;;;;10.13;4.85;;;12.40;99.90;;;;;;5034247;28;20029;-56
2023/11/19 01:37:10;;;;;;;7.97;4.78;;;12.40;99.90;;;;;;5034327;28;20556;-56
2023/11/19 01:39:35;;;;;;;7.78;4.63;;;12.50;99.90;;;;;;5032843;28;20021;-56
2023/11/19 01:42:01;;;;;;;8.88;4.10;;;12.50;99.90;;;;;;5033127;28;20035;-56
2023/11/19 01:44:27;;;;;;;8.10;3.60;;;12.50;99.90;;;;;;5034221;28;20112;-54
2023/11/19 01:46:53;;;;;;;6.38;3.25;;;12.50;99.90;;;;;;5034518;28;20112;-56
2023/11/19 01:49:19;;;;;;;5.28;2.72;;;12.50;99.90;;;;;;5032731;28;20473;-55
2023/11/19 01:51:46;;;;;;;8.15;2.60;;;12.60;99.90;;;;;;5032861;28;20069;-54
2023/11/19 01:54:12;;;;;;;3.40;2.05;;;12.60;99.90;;;;;;5032702;28;20037;-55
2023/11/19 01:56:40;;;;;;;5.53;2.78;;;12.60;99.90;;;;;;5032602;28;20065;-55
2023/11/19 01:59:07;;;;;;;3.13;1.80;;;12.50;99.90;;;;;;5031962;28;20021;-53
2023/11/19 02:01:37;;;;;;;3.35;1.98;;;12.60;99.90;;;;;;5033877;28;20055;-56
2023/11/19 02:04:04;;;;;;;5.25;2.33;;;12.60;99.90;;;;;;5033778;28;20068;-55
2023/11/19 02:06:31;;;;;;;6.28;2.50;;;12.60;99.90;;;;;;5032428;28;20029;-55
2023/11/19 02:08:57;;;;;;;3.80;2.05;;;12.60;99.90;;;;;;5031860;28;20048;-52
2023/11/19 02:11:23;;;;;;;4.70;2.20;;;12.60;99.90;;;;;;5033689;28;20021;-53
2023/11/19 02:13:49;;;;;;;5.30;2.83;;;12.60;99.90;;;;;;5032119;28;20039;-51
2023/11/19 02:16:15;;;;;;;7.00;3.30;;;12.70;99.90;;;;;;5031932;28;20029;-55
2023/11/19 02:18:40;;;;;;;10.25;2.97;;;12.70;99.90;;;;;;5033023;28;20029;-55
2023/11/19 02:21:06;;;;;;;7.75;2.55;;;12.70;99.90;;;;;;5032233;28;20048;-54
2023/11/19 02:23:32;;;;;;;5.05;2.67;;;12.70;99.90;;;;;;5032162;28;20053;-54
2023/11/19 02:26:19;;;;;;;6.43;2.65;;;12.70;99.90;;;;;;5033321;28;20053;-53
2023/11/19 02:28:45;;;;;;;8.68;2.97;;;12.70;99.90;;;;;;5031782;28;20025;-54
2023/11/19 02:31:11;;;;;;;7.60;3.58;;;12.60;99.90;;;;;;5032063;28;20025;-56
2023/11/19 02:33:40;;;;;;;10.98;3.10;;;12.60;99.90;;;;;;5031904;28;20045;-55
2023/11/19 02:36:07;;;;;;;5.88;2.33;;;12.70;99.90;;;;;;5033152;28;20038;-53
2023/11/19 02:38:37;;;;;;;5.30;2.60;;;12.70;99.90;;;;;;5033392;28;20033;-52
2023/11/19 02:41:06;;;;;;;3.17;1.60;;;12.80;99.90;;;;;;5031815;28;20034;-55
2023/11/19 02:43:33;;;;;;;3.75;1.50;;;12.80;99.90;;;;;;5031996;28;20025;-56
2023/11/19 02:46:04;;;;;;;9.60;1.42;;;12.80;99.90;;;;;;5031825;28;20548;-56
2023/11/19 02:48:30;;;;;;;4.07;1.50;;;12.80;99.90;;;;;;5031571;28;20029;-54
2023/11/19 02:50:58;;;;;;;5.10;1.50;;;12.80;99.90;;;;;;5031939;28;20040;-53
2023/11/19 02:53:27;;;;;;;6.97;1.65;;;12.80;99.90;;;;;;5031711;28;20025;-54
2023/11/19 02:55:53;;;;;;;3.70;1.30;;;12.70;99.90;;;;;;5031970;28;20025;-56
2023/11/19 02:58:23;;;;;;;6.05;1.50;;;12.70;99.90;;;;;;5031844;28;20029;-54
2023/11/19 03:00:56;;;;;;;3.70;1.15;;;12.80;99.90;;;;;;5031601;28;20044;-53
2023/11/19 03:03:28;;;;;;;4.35;1.45;;;12.80;99.90;;;;;;5031744;28;20390;-55
2023/11/19 03:05:55;;;;;;;6.93;1.33;;;12.80;99.90;;;;;;5031567;28;20095;-55
2023/11/19 03:08:20;;;;;;;4.10;1.40;;;12.80;99.90;;;;;;5031104;28;20133;-51
2023/11/19 03:10:46;;;;;;;8.43;1.60;;;12.80;99.90;;;;;;5032493;28;20096;-53
2023/11/19 03:13:17;;;;;;;8.45;1.48;;;12.80;99.90;;;;;;5031285;28;20132;-55
2023/11/19 03:15:42;;;;;;;9.13;2.25;;;12.90;99.90;;;;;;5031081;28;20037;-54
2023/11/19 03:18:09;;;;;;;6.53;1.60;;;12.80;99.90;;;;;;5030713;28;20029;-53
2023/11/19 03:20:34;;;;;;;3.80;1.95;;;12.80;99.90;;;;;;5031278;28;20040;-51
2023/11/19 03:23:01;;;;;;;10.38;2.17;;;12.80;99.90;;;;;;5032829;28;20040;-53
2023/11/19 03:25:33;;;;;;;8.68;1.88;;;12.80;99.90;;;;;;5033113;28;20030;-56
2023/11/19 03:27:59;;;;;;;5.88;1.75;;;12.80;99.90;;;;;;5032065;28;20042;-55
2023/11/19 03:30:24;;;;;;;6.10;1.65;;;12.70;99.90;;;;;;5030997;28;20029;-56
2023/11/19 03:32:50;;;;;;;10.25;2.15;;;12.70;99.90;;;;;;5030905;28;20490;-56
2023/11/19 03:35:16;;;;;;;12.43;2.28;;;12.70;99.90;;;;;;5032188;28;20029;-56
2023/11/19 03:37:42;;;;;;;10.70;2.55;;;12.70;99.90;;;;;;5032409;28;20034;-54
2023/11/19 03:40:08;;;;;;;8.57;1.45;;;12.70;99.90;;;;;;5031512;28;20547;-56
2023/11/19 03:42:33;;;;;;;13.07;2.20;;;12.70;99.90;;;;;;5032386;28;20108;-55
2023/11/19 03:44:59;;;;;;;10.23;2.20;;;12.70;99.90;;;;;;5032022;28;20021;-53
2023/11/19 03:47:25;;;;;;;8.63;1.45;;;12.70;99.90;;;;;;5031921;28;20025;-55
2023/11/19 03:49:52;;;;;;;8.63;2.67;;;12.60;99.90;;;;;;5030060;28;20033;-54
2023/11/19 03:52:18;;;;;;;9.18;2.25;;;12.60;99.90;;;;;;5031822;28;20387;-52
2023/11/19 03:54:45;;;;;;;8.40;1.70;;;12.50;99.90;;;;;;5030273;28;20034;-55
2023/11/19 03:57:12;;;;;;;7.47;1.80;;;12.50;99.90;;;;;;5031594;28;20029;-52
2023/11/19 03:59:37;;;;;;;6.78;1.90;;;12.50;99.90;;;;;;5030084;28;20072;-55
2023/11/19 04:02:03;;;;;;;7.93;2.20;;;12.50;99.90;;;;;;5031509;28;20065;-51
2023/11/19 04:04:31;;;;;;;8.95;2.20;;;12.40;99.90;;;;;;5030157;28;20045;-56
2023/11/19 04:06:57;;;;;;;13.30;2.20;;;12.40;99.90;;;;;;5031473;28;20382;-51
2023/11/19 04:09:23;;;;;;;10.10;2.00;;;12.40;99.90;;;;;;5029972;28;20033;-54
2023/11/19 04:11:49;;;;;;;8.63;1.77;;;12.40;99.90;;;;;;5031564;28;20479;-56
2023/11/19 04:14:18;;;;;;;7.63;2.03;;;12.40;99.90;;;;;;5031244;28;20051;-56
2023/11/19 04:16:44;;;;;;;7.55;1.48;;;12.40;99.90;;;;;;5029965;28;20069;-54
2023/11/19 04:19:10;;;;;;;7.35;2.17;;;12.40;99.90;;;;;;5029819;28;20128;-55
2023/11/19 04:21:36;;;;;;;11.07;1.88;;;12.40;99.90;;;;;;5031577;28;20037;-55
2023/11/19 04:24:02;;;;;;;10.70;2.25;;;12.50;99.90;;;;;;5029890;28;20083;-53
2023/11/19 04:26:27;;;;;;;9.32;2.15;;;12.50;99.90;;;;;;5031145;28;20057;-54
2023/11/19 04:28:56;;;;;;;12.25;2.17;;;12.50;99.90;;;;;;5030580;28;20033;-55
2023/11/19 04:31:22;;;;;;;12.10;1.90;;;12.50;99.90;;;;;;5030991;28;20085;-56
2023/11/19 04:33:47;;;;;;;10.85;1.90;;;12.50;99.90;;;;;;5031081;28;20040;-53
2023/11/19 04:36:14;;;;;;;10.52;2.20;;;12.50;99.90;;;;;;5030877;28;20037;-56
2023/11/19 04:38:39;;;;;;;9.95;2.28;;;12.50;99.90;;;;;;5030343;28;20091;-55
2023/11/19 04:41:06;;;;;;;12.60;1.73;;;12.50;99.90;;;;;;5030966;28;20037;-55
2023/11/19 04:43:35;;;;;;;13.88;2.13;;;12.50;99.90;;;;;;5030992;28;20048;-56
2023/11/19 04:46:04;;;;;;;11.65;2.00;;;12.50;99.90;;;;;;5030947;28;20065;-55
2023/11/19 04:48:29;;;;;;;13.75;2.22;;;12.40;99.90;;;;;;5030428;28;20087;-53
2023/11/19 04:50:55;;;;;;;9.93;1.90;;;12.40;99.90;;;;;;5030800;28;20026;-56
2023/11/19 04:53:20;;;;;;;12.50;2.15;;;12.30;99.90;;;;;;5031101;28;20037;-53
2023/11/19 04:55:46;;;;;;;10.95;1.80;;;12.30;99.90;;;;;;5030730;28;20071;-55
2023/11/19 04:58:11;;;;;;;11.32;1.88;;;12.30;99.90;;;;;;5030269;28;20037;-55
2023/11/19 05:00:37;;;;;;;9.85;1.67;;;12.40;99.90;;;;;;5030498;28;20160;-56
2023/11/19 05:03:03;;;;;;;10.82;1.90;;;12.40;99.90;;;;;;5030777;28;20383;-55
2023/11/19 05:05:29;;;;;;;14.75;2.17;;;12.40;99.90;;;;;;5031029;28;20072;-51
2023/11/19 05:07:55;;;;;;;10.27;1.90;;;12.40;99.90;;;;;;5030780;28;20084;-54
2023/11/19 05:10:21;;;;;;;17.50;2.70;;;12.40;99.90;;;;;;5030460;28;20036;-55
2023/11/19 05:12:46;;;;;;;11.95;2.08;;;12.40;99.90;;;;;;5029818;28;20087;-55
2023/11/19 05:15:12;;;;;;;15.48;2.00;;;12.40;99.90;;;;;;5030729;28;20026;-54
2023/11/19 05:17:38;;;;;;;14.98;2.17;;;12.40;99.90;;;;;;5030904;28;20460;-56
2023/11/19 05:20:05;;;;;;;10.73;2.38;;;12.40;99.90;;;;;;5030598;28;20474;-52
2023/11/19 05:22:30;;;;;;;17.58;2.53;;;12.40;99.90;;;;;;5029662;28;20486;-54
2023/11/19 05:24:56;;;;;;;11.32;2.65;;;12.40;99.90;;;;;;5030783;28;20075;-55
2023/11/19 05:27:23;;;;;;;13.50;2.40;;;12.40;99.90;;;;;;5030834;28;20045;-55
2023/11/19 05:29:49;;;;;;;9.23;1.55;;;12.50;99.90;;;;;;5028791;28;20121;-56
2023/11/19 05:32:15;;;;;;;11.88;2.00;;;12.50;99.90;;;;;;5030645;28;20457;-54
2023/11/19 05:34:40;;;;;;;10.75;1.60;;;12.50;99.90;;;;;;5030446;28;20036;-56
2023/11/19 05:37:06;;;;;;;7.68;1.52;;;12.50;99.90;;;;;;5030576;28;20041;-56
2023/11/19 05:39:32;;;;;;;13.43;2.35;;;12.50;99.90;;;;;;5030068;28;20038;-55
2023/11/19 05:41:57;;;;;;;12.77;2.15;;;12.50;99.90;;;;;;5030433;28;20109;-54
2023/11/19 05:44:23;;;;;;;17.00;2.10;;;12.60;99.90;;;;;;5030253;28;20511;-55
2023/11/19 05:46:48;;;;;;;13.00;1.90;;;12.50;99.90;;;;;;5030452;28;20521;-53
2023/11/19 05:49:14;;;;;;;14.50;1.90;;;12.50;99.90;;;;;;5029836;28;20025;-55
2023/11/19 05:51:40;;;;;;;10.68;1.80;;;12.60;99.90;;;;;;5032145;28;20025;-55
2023/11/19 05:54:08;;;;;;;16.05;3.03;;;12.50;99.90;;;;;;5034120;28;20041;-54
2023/11/19 05:56:33;;;;;;;9.43;1.70;;;12.50;99.90;;;;;;5033996;28;20036;-55
2023/11/19 05:59:01;;;;;;;9.05;1.90;;;12.50;99.90;;;;;;5033639;28;20029;-56
2023/11/19 06:01:26;;;;;;;13.57;2.47;;;12.50;99.90;;;;;;5033827;28;20048;-53
2023/11/19 06:03:52;;;;;;;10.77;1.83;;;12.50;99.90;;;;;;5033889;28;20029;-52
2023/11/19 06:06:18;;;;;;;10.93;2.55;;;12.50;99.90;;;;;;5033671;28;20031;-53
2023/11/19 06:08:44;;;;;;;13.82;1.98;;;12.50;99.90;;;;;;5033899;28;20039;-54
2023/11/19 06:11:14;;;;;;;17.27;2.65;;;12.40;99.90;;;;;;5033770;28;20033;-55
2023/11/19 06:13:40;;;;;;;11.77;1.83;;;12.40;99.90;;;;;;5033577;28;20033;-54
2023/11/19 06:16:06;;;;;;;11.50;1.73;;;12.40;99.90;;;;;;5033816;28;20033;-56
2023/11/19 06:18:32;;;;;;;7.53;1.23;;;12.40;99.90;;;;;;5033149;28;20026;-56
2023/11/19 06:20:58;;;;;;;15.60;2.35;;;12.30;99.90;;;;;;5033645;28;20540;-51
2023/11/19 06:23:23;;;;;;;11.00;2.22;;;12.30;99.90;;;;;;5033496;28;20029;-55
2023/11/19 06:25:49;;;;;;;12.40;2.00;;;12.40;99.90;;;;;;5032073;28;20029;-55
2023/11/19 06:28:15;;;;;;;13.75;2.15;;;12.30;99.90;;;;;;5032964;28;20033;-55
2023/11/19 06:30:41;;;;;;;13.95;2.15;;;12.30;99.90;;;;;;5033205;28;20041;-56
2023/11/19 06:33:07;;;;;;;13.63;2.03;;;12.20;99.90;;;;;;5033427;28;20505;-55
2023/11/19 06:35:36;;;;;;;17.73;3.03;;;12.20;99.90;;;;;;5034109;28;20430;-55
2023/11/19 06:38:04;;;;;;;12.30;2.25;;;12.20;99.90;;;;;;5034086;28;20044;-54
2023/11/19 06:40:30;;;;;;;12.32;2.80;;;12.20;99.90;;;;;;5033077;28;20104;-53
2023/11/19 06:42:56;;;;;;;9.20;1.73;;;12.20;99.90;;;;;;5033406;28;20037;-53
2023/11/19 06:45:22;;;;;;;14.35;4.00;;;12.10;99.90;;;;;;5033478;28;20029;-54
2023/11/19 06:47:47;;;;;;;13.68;2.10;;;12.10;99.90;;;;;;5033017;28;20029;-54
2023/11/19 06:50:14;;;;;;;10.02;1.80;;;12.10;99.90;;;;;;5032593;28;20434;-53
2023/11/19 06:52:40;;;;;;;12.20;1.67;;;12.10;99.90;;;;;;5033467;28;20502;-54
2023/11/19 06:55:06;;;;;;;14.57;1.73;;;12.10;99.90;;;;;;5033119;28;20034;-55
2023/11/19 06:57:32;;;;;;;11.05;2.00;;;12.00;99.90;;;;;;5031543;28;20034;-53
2023/11/19 06:59:58;;;;;;;10.20;2.00;;;11.90;99.90;;;;;;5032764;28;20025;-53
2023/11/19 07:02:24;;;;;;;13.48;2.20;;;12.00;99.90;;;;;;5031668;28;20041;-53
2023/11/19 07:04:51;;;;;;;14.70;1.63;;;11.90;99.90;;;;;;5032577;28;20416;-55
2023/11/19 07:07:16;;;;;;;11.20;2.78;;;11.90;99.90;;;;;;5032770;28;20517;-54
2023/11/19 07:09:42;;;;;;;18.50;2.40;;;11.90;99.90;;;;;;5032111;28;20080;-54
2023/11/19 07:12:08;;;;;;;13.55;2.97;;;11.90;99.90;;;;;;5032816;28;20033;-55
2023/11/19 07:14:34;;;;;;;19.27;2.50;;;11.90;99.90;;;;;;5031184;28;20504;-55
2023/11/19 07:17:00;;;;;;;14.43;2.22;;;11.90;99.90;;;;;;5032582;28;20076;-54
2023/11/19 07:19:26;;;;;;;14.13;2.33;;;12.00;99.90;;;;;;5032017;28;20044;-52
2023/11/19 07:21:54;;;;;;;17.15;3.38;;;12.00;99.90;;;;;;5032621;28;20441;-55
2023/11/19 07:24:21;;;;;;;13.63;2.55;;;11.90;99.90;;;;;;5032203;28;20084;-53
2023/11/19 07:26:47;;;;;;;15.48;3.17;;;11.90;99.90;;;;;;5032937;28;20061;-53
2023/11/19 07:29:15;;;;;;;12.25;2.25;;;12.00;99.90;;;;;;5031931;28;20124;-54
2023/11/19 07:31:40;;;;;;;21.60;2.65;;;11.90;99.90;;;;;;5032513;28;20036;-52
2023/11/19 07:34:06;;;;;;;14.30;2.45;;;11.90;99.90;;;;;;5032022;28;20413;-55
2023/11/19 07:36:32;;;;;;;12.73;2.63;;;11.90;99.90;;;;;;5032222;28;20098;-52
2023/11/19 07:38:58;;;;;;;15.75;2.75;;;11.90;99.90;;;;;;5031620;28;20037;-50
2023/11/19 07:41:25;;;;;;;11.30;2.47;;;11.90;99.90;;;;;;5032239;28;20562;-52
2023/11/19 07:43:51;;;;;;;17.20;2.15;;;11.90;99.90;;;;;;5031998;28;20121;-53
2023/11/19 07:46:19;;;;;;;12.07;3.15;;;11.90;99.90;;;;;;5031897;28;20049;-50
2023/11/19 07:48:46;;;;;;;12.52;1.85;;;12.00;99.90;;;;;;5031608;28;20490;-53
2023/11/19 07:51:13;;;;;;;12.80;2.47;;;12.00;99.90;;;;;;5032027;28;20037;-53
2023/11/19 07:53:39;;;;;;;11.52;2.65;;;12.00;99.90;;;;;;5031804;28;20032;-53
2023/11/19 07:56:05;;;;;;;15.10;2.50;;;12.00;99.90;;;;;;5031966;28;20082;-53
2023/11/19 07:58:31;;;;;;;11.85;2.58;;;12.00;99.90;;;;;;5031448;28;20025;-52
2023/11/19 08:00:56;;;;;;;11.70;2.35;;;12.00;99.90;;;;;;5031977;28;20040;-54
2023/11/19 08:03:22;;;;;;;10.55;2.30;;;12.10;99.90;;;;;;5031683;28;20083;-53
2023/11/19 08:05:48;;;;;;;14.02;2.47;;;12.10;99.90;;;;;;5031833;28;20029;-54
2023/11/19 08:08:14;;;;;;;13.95;2.47;;;12.20;99.90;;;;;;5031577;28;20057;-54
2023/11/19 08:10:41;;;;;;;11.27;2.33;;;12.20;99.90;;;;;;5031811;28;20037;-53
2023/11/19 08:13:07;;;;;;;13.20;2.42;;;12.20;99.90;;;;;;5031936;28;20030;-51
2023/11/19 08:15:33;;;;;;;12.48;2.20;;;12.20;99.90;;;;;;5031207;28;20041;-56
2023/11/19 08:17:59;;;;;;;16.48;2.40;;;12.10;99.90;;;;;;5031409;28;20025;-55
2023/11/19 08:20:24;;;;;;;12.52;2.00;;;12.20;99.90;;;;;;5030854;28;20481;-52
2023/11/19 08:22:50;;;;;;;15.05;2.50;;;12.30;99.90;;;;;;5031424;28;20753;-55
2023/11/19 08:25:16;;;;;;;15.05;2.53;;;12.40;99.90;;;;;;5031570;28;20497;-54
2023/11/19 08:27:42;;;;;;;16.17;2.95;;;12.40;99.90;;;;;;5031785;28;20056;-55
2023/11/19 08:30:08;;;;;;;21.02;2.83;;;12.40;99.90;;;;;;5030853;28;20496;-54
2023/11/19 08:32:35;;;;;;;10.57;2.33;;;12.40;99.90;;;;;;5031048;28;20039;-55
2023/11/19 08:35:01;;;;;;;14.60;1.98;;;12.40;99.90;;;;;;5031012;28;20038;-52
2023/11/19 08:37:27;;;;;;;12.48;2.80;;;12.50;99.90;;;;;;5031079;28;20029;-52
2023/11/19 08:39:53;;;;;;;12.23;2.88;;;12.50;99.90;;;;;;5030574;28;20433;-54
2023/11/19 08:42:19;;;;;;;15.75;2.45;;;12.60;99.90;;;;;;5031269;28;20035;-55
2023/11/19 08:44:50;;;;;;;15.20;1.70;;;12.70;99.90;;;;;;5029849;28;20033;-52
2023/11/19 08:47:17;;;;;;;17.27;2.55;;;12.70;99.90;;;;;;5030914;28;20112;-55
2023/11/19 08:49:44;;;;;;;11.07;1.90;;;12.80;99.90;;;;;;5030817;28;20433;-54
2023/11/19 08:52:10;;;;;;;13.63;2.28;;;12.80;99.90;;;;;;5030804;28;20521;-51
2023/11/19 08:54:36;;;;;;;15.95;2.55;;;12.90;99.90;;;;;;5030634;28;20044;-54
2023/11/19 08:57:03;;;;;;;12.65;2.33;;;12.90;99.90;;;;;;5030800;28;20033;-56
2023/11/19 08:59:29;;;;;;;12.48;2.00;;;13.00;99.90;;;;;;5030507;28;20099;-54
2023/11/19 09:01:55;;;;;;;12.43;2.08;;;13.10;99.90;;;;;;5030940;28;20136;-56
2023/11/19 09:04:22;;;;;;;11.43;2.13;;;13.10;99.90;;;;;;5030788;28;20454;-55
2023/11/19 09:06:48;;;;;;;15.52;2.55;;;13.10;99.90;;;;;;5030898;28;20038;-54
2023/11/19 09:09:14;;;;;;;14.40;2.58;;;13.20;99.90;;;;;;5029226;28;20034;-53
2023/11/19 09:11:40;;;;;;;13.05;2.00;;;13.30;99.90;;;;;;5030854;28;20367;-53
2023/11/19 09:14:06;;;;;;;17.73;1.80;;;13.40;99.90;;;;;;5031170;28;20502;-52
2023/11/19 09:16:32;;;;;;;13.80;1.88;;;13.60;99.90;;;;;;5030577;28;20029;-55
2023/11/19 09:18:59;;;;;;;12.57;2.03;;;13.70;99.90;;;;;;5030677;28;20044;-54
2023/11/19 09:21:25;;;;;;;11.32;2.05;;;13.70;99.90;;;;;;5029352;28;20088;-56
2023/11/19 09:23:51;;;;;;;15.55;2.58;;;13.70;99.90;;;;;;5030628;28;20026;-56
2023/11/19 09:26:16;;;;;;;17.40;3.08;;;13.60;99.90;;;;;;5031775;28;20087;-53
2023/11/19 09:28:42;;;;;;;13.35;2.55;;;13.50;99.90;;;;;;5032642;28;20026;-55
2023/11/19 09:31:17;;;;;;;12.90;2.55;;;13.60;99.90;;;;;;5034351;28;20032;-51
2023/11/19 09:33:44;;;;;;;17.20;4.28;;;13.80;99.90;;;;;;5034321;28;20492;-50
2023/11/19 09:36:13;;;;;;;24.00;4.68;;;14.00;99.90;;;;;;5033133;28;20056;-53
2023/11/19 09:38:47;;;;;;;;;;;14.20;99.90;;;;;;5034378;28;20025;-54
2023/11/19 09:41:14;;;;;;;14.23;2.25;;;14.20;99.90;;;;;;5034267;28;19955;-54
2023/11/19 09:43:41;;;;;;;10.90;2.47;;;14.30;99.90;;;;;;5034339;28;20029;-51
2023/11/19 09:46:11;;;;;;;13.98;2.42;;;14.50;99.90;;;;;;5034079;28;20033;-55
2023/11/19 09:48:37;;;;;;;14.88;2.67;;;15.00;99.90;;;;;;5035132;28;20108;-53
2023/11/19 09:51:05;;;;;;;12.65;2.00;;;15.10;99.90;;;;;;5033032;28;20022;-49
2023/11/19 09:53:31;;;;;;;12.68;2.35;;;14.80;99.90;;;;;;5034353;28;20432;-54
2023/11/19 09:55:59;;;;;;;11.70;1.85;;;14.50;99.90;;;;;;5034036;28;20037;-53
2023/11/19 09:58:26;;;;;;;9.98;2.25;;;14.10;99.90;;;;;;5033630;28;20022;-51
2023/11/19 10:00:51;;;;;;;11.23;1.55;;;13.90;99.90;;;;;;5033906;28;20083;-54
2023/11/19 10:03:17;;;;;;;14.60;2.28;;;13.70;99.90;;;;;;5033918;28;20033;-54
2023/11/19 10:05:43;;;;;;;12.18;1.80;;;13.60;99.90;;;;;;5016230;28;20041;-53
2023/11/19 10:08:10;;;;;;;14.18;2.38;;;13.60;99.90;;;;;;5033686;28;20052;-55
2023/11/19 10:10:37;;;;;;;15.00;2.50;;;13.60;99.90;;;;;;5033885;28;20033;-55
2023/11/19 10:13:03;;;;;;;16.85;2.38;;;13.50;99.90;;;;;;5033703;28;20034;-51
2023/11/19 10:15:36;;;;;;;15.80;2.85;;;13.40;99.90;;;;;;5033692;28;20116;-54
2023/11/19 10:18:02;;;;;;;9.65;2.22;;;13.40;99.90;;;;;;5033962;28;20045;-54
2023/11/19 10:20:28;;;;;;;21.35;2.88;;;13.40;99.90;;;;;;5033347;28;20030;-52
2023/11/19 10:22:55;;;;;;;17.40;2.40;;;13.40;99.90;;;;;;5033753;28;20033;-53
2023/11/19 10:25:28;;;;;;;13.85;1.98;;;13.50;99.90;;;;;;5033481;28;20551;-53
2023/11/19 10:27:57;;;;;;;17.42;2.75;;;13.50;99.90;;;;;;5033761;28;20168;-54
2023/11/19 10:30:26;;;;;;;15.88;3.60;;;13.50;99.90;;;;;;5033166;28;20500;-53
2023/11/19 10:33:07;;;;;;;16.88;1.80;;;13.60;99.90;;;;;;5033558;28;20033;-52
2023/11/19 10:35:54;;;;;;;17.27;3.10;;;13.80;99.90;;;;;;5033181;28;20037;-53
2023/11/19 10:38:22;;;;;;;15.95;2.38;;;14.00;99.90;;;;;;5032855;28;20029;-54
2023/11/19 10:40:48;;;;;;;11.13;2.00;;;14.00;99.90;;;;;;5033618;28;20033;-54
2023/11/19 10:43:14;;;;;;;18.40;2.17;;;13.90;99.90;;;;;;5033390;28;20032;-53
2023/11/19 10:45:40;;;;;;;9.80;2.80;;;13.90;99.90;;;;;;5033253;28;20026;-52
2023/11/19 10:48:07;;;;;;;17.08;2.60;;;13.90;99.90;;;;;;5033070;28;20057;-53
2023/11/19 10:50:37;;;;;;;14.55;2.58;;;14.20;99.90;;;;;;5033038;28;20421;-54
2023/11/19 10:53:04;;;;;;;15.85;3.38;;;14.60;99.90;;;;;;5033302;28;20030;-53
2023/11/19 10:55:31;;;;;;;11.23;2.20;;;14.80;99.90;;;;;;5033122;28;20030;-54
2023/11/19 10:58:03;;;;;;;14.07;2.85;;;14.80;99.90;;;;;;5033316;28;20411;-54
2023/11/19 11:00:33;;;;;;;22.85;4.55;;;14.80;99.90;;;;;;5032756;28;20033;-53
2023/11/19 11:03:05;;;;;;;14.20;3.35;;;14.80;99.90;;;;;;5032909;28;20128;-53
2023/11/19 11:05:35;;;;;;;10.60;2.25;;;15.00;99.90;;;;;;5033078;28;20048;-54
2023/11/19 11:08:02;;;;;;;12.60;3.00;;;15.10;99.90;;;;;;5032908;28;20041;-54
2023/11/19 11:10:33;;;;;;;14.15;2.47;;;14.90;99.90;;;;;;5032431;28;20033;-52
2023/11/19 11:13:00;;;;;;;18.40;2.70;;;14.90;99.90;;;;;;5032864;28;20034;-52
2023/11/19 11:15:29;;;;;;;12.88;2.20;;;15.10;99.90;;;;;;5032379;28;20044;-51
2023/11/19 11:18:03;;;;;;;16.60;2.15;;;15.40;99.90;;;;;;5032446;28;20040;-52
2023/11/19 11:20:33;;;;;;;14.95;2.28;;;15.40;99.90;;;;;;5032179;28;20584;-51
2023/11/19 11:23:21;;;;;;;14.90;2.63;;;15.40;99.90;;;;;;5032965;28;20029;-50
2023/11/19 11:26:24;;;;;;;11.35;1.98;;;15.30;99.90;;;;;;5032666;28;20029;-53
2023/11/19 11:29:34;;;;;;;13.63;2.17;;;15.30;99.90;;;;;;5031781;28;20045;-54
2023/11/19 11:32:18;;;;;;;14.90;1.90;;;15.10;99.90;;;;;;5006798;28;20043;-54
2023/11/19 11:35:11;;;;;;;13.95;2.35;;;15.50;99.90;;;;;;5032033;28;20034;-54
2023/11/19 11:37:49;;;;;;;13.15;2.35;;;16.20;99.90;;;;;;5032172;28;20033;-54
2023/11/19 11:40:15;;;;;;;9.52;2.00;;;16.60;99.90;;;;;;5031862;28;20025;-54
2023/11/19 11:42:42;;;;;;;9.80;1.83;;;16.50;99.90;;;;;;5032338;28;20429;-55
2023/11/19 11:45:09;;;;;;;11.13;2.22;;;16.10;99.90;;;;;;5032056;28;20120;-55
2023/11/19 11:47:56;;;;;;;11.73;1.40;;;15.90;99.90;;;;;;5031801;28;20083;-54
2023/11/19 11:50:23;;;;;;;7.85;1.60;;;15.60;99.90;;;;;;5014171;28;20037;-52
2023/11/19 11:52:57;;;;;;;11.40;1.73;;;15.50;99.90;;;;;;5031855;28;20040;-55
2023/11/19 11:55:36;;;;;;;12.55;2.00;;;15.70;99.90;;;;;;5031792;28;20128;-54
2023/11/19 11:58:02;;;;;;;14.15;1.88;;;15.90;99.90;;;;;;5031775;28;20021;-53
2023/11/19 12:00:39;;;;;;;12.38;2.10;;;16.00;99.90;;;;;;5031370;28;20106;-54
2023/11/19 12:03:07;;;;;;;10.27;2.25;;;16.10;99.90;;;;;;5031615;28;20033;-54
2023/11/19 12:05:36;;;;;;;10.13;1.85;;;16.40;99.90;;;;;;5031628;28;20033;-52
2023/11/19 12:08:04;;;;;;;12.68;2.28;;;16.20;99.90;;;;;;5030159;28;20071;-54
2023/11/19 12:10:31;;;;;;;12.05;2.35;;;15.90;99.90;;;;;;5031370;28;20492;-52
2023/11/19 12:13:01;;;;;;;13.77;2.03;;;16.10;99.90;;;;;;5031512;28;20160;-52
2023/11/19 12:15:27;;;;;;;10.70;1.65;;;16.50;99.90;;;;;;5031526;28;20037;-50
2023/11/19 12:17:56;;;;;;;13.23;2.10;;;17.00;99.90;;;;;;5031329;28;20029;-52
2023/11/19 12:20:24;;;;;;;9.85;2.10;;;16.80;99.90;;;;;;5030988;28;20359;-51
2023/11/19 12:22:50;;;;;;;10.98;1.80;;;16.30;99.90;;;;;;5031374;28;20470;-54
2023/11/19 12:25:17;;;;;;;8.20;2.08;;;16.20;99.90;;;;;;5031271;28;20037;-54
2023/11/19 12:27:48;;;;;;;14.30;2.28;;;16.60;99.90;;;;;;5031364;28;20041;-53
2023/11/19 12:30:28;;;;;;;12.07;1.95;;;16.40;99.90;;;;;;5029586;28;20057;-53
2023/11/19 12:32:54;;;;;;;8.70;1.60;;;15.90;99.90;;;;;;5031215;28;20120;-55
2023/11/19 12:35:20;;;;;;;9.52;1.63;;;15.50;99.90;;;;;;5030915;28;20112;-54
2023/11/19 12:37:48;;;;;;;8.90;1.75;;;15.10;99.90;;;;;;5031004;28;20479;-54
2023/11/19 12:40:21;;;;;;;9.98;1.67;;;14.70;99.90;;;;;;5030628;28;20122;-52
2023/11/19 12:42:48;;;;;;;10.35;1.92;;;14.40;99.90;;;;;;5030958;28;20474;-52